Time;durP1;ratioP1;P1;durP2;ratioP2;P2;SDS_P1;SDS_P2;PMS_P1;PMS_P2;Temp;Humidity;BMP_temperature;BMP_pressure;BME280_temperature;BME280_humidity;BME280_pressure;Samples;Min_cycle;Max_cycle;Signal;HPM_P1;HPM_P2
2022/04/11 00:00:50;;;;;;;0.30;0.20;;;;;;;8.42;96.35;94529.19;5095291;28;20435;-48
2022/04/11 00:03:19;;;;;;;0.40;0.20;;;;;;;8.97;95.05;94544.63;5095207;28;20477;-49
2022/04/11 00:05:49;;;;;;;0.30;0.20;;;;;;;8.72;93.58;94550.91;5094889;28;20455;-48
2022/04/11 00:08:19;;;;;;;0.30;0.30;;;;;;;8.49;98.03;94542.88;5095181;28;20493;-48
2022/04/11 00:10:48;;;;;;;0.50;0.30;;;;;;;8.90;96.86;94552.06;5093672;28;20550;-49
2022/04/11 00:13:16;;;;;;;0.30;0.20;;;;;;;8.71;96.46;94559.88;5094376;28;20972;-49
2022/04/11 00:15:45;;;;;;;0.37;0.27;;;;;;;8.92;93.63;94555.22;5094895;28;20464;-49
2022/04/11 00:18:13;;;;;;;0.30;0.20;;;;;;;8.92;90.94;94566.59;5094503;28;20970;-48
2022/04/11 00:20:42;;;;;;;0.93;0.90;;;;;;;8.82;93.66;94561.38;5094879;28;20531;-48
2022/04/11 00:23:12;;;;;;;0.37;0.27;;;;;;;8.67;93.68;94561.50;5094540;28;20482;-48
2022/04/11 00:25:40;;;;;;;0.30;0.20;;;;;;;8.66;93.12;94567.03;5094738;28;20435;-48
2022/04/11 00:28:09;;;;;;;0.30;0.20;;;;;;;8.58;91.71;94555.22;5094534;28;20924;-48
2022/04/11 00:30:37;;;;;;;0.40;0.30;;;;;;;8.79;92.46;94561.94;5094332;28;20468;-48
2022/04/11 00:33:05;;;;;;;0.30;0.30;;;;;;;8.35;94.71;94568.31;5094304;28;20476;-49
2022/04/11 00:35:34;;;;;;;0.30;0.30;;;;;;;8.24;95.95;94578.09;5094536;28;20921;-48
2022/04/11 00:38:02;;;;;;;0.30;0.20;;;;;;;8.55;91.88;94586.69;5094301;28;20507;-48
2022/04/11 00:40:32;;;;;;;0.40;0.30;;;;;;;8.84;100.00;94583.03;5094248;28;20468;-48
2022/04/11 00:43:01;;;;;;;0.30;0.20;;;;;;;8.49;96.33;94593.03;5094256;28;20769;-48
2022/04/11 00:45:29;;;;;;;0.40;0.30;;;;;;;8.97;93.92;94592.19;5093537;28;20437;-48
2022/04/11 00:47:58;;;;;;;1.03;0.50;;;;;;;8.37;94.47;94582.03;5093997;28;20425;-48
2022/04/11 00:50:26;;;;;;;0.40;0.30;;;;;;;8.20;96.64;94537.47;5094196;28;20436;-49
2022/04/11 00:52:56;;;;;;;0.30;0.23;;;;;;;8.87;99.60;94600.19;5093985;28;20432;-49
2022/04/11 00:55:26;;;;;;;0.30;0.20;;;;;;;8.42;100.00;94606.56;5093801;28;20463;-49
2022/04/11 00:57:57;;;;;;;0.30;0.20;;;;;;;8.80;100.00;94605.00;5093062;28;20481;-49
2022/04/11 01:00:26;;;;;;;0.40;0.30;;;;;;;8.80;96.03;94613.69;5093767;28;20440;-50
2022/04/11 01:02:54;;;;;;;0.30;0.20;;;;;;;8.57;100.00;94616.25;5093701;28;20511;-50
2022/04/11 01:05:23;;;;;;;0.30;0.20;;;;;;;8.85;100.00;94616.28;5093075;28;20423;-49
2022/04/11 01:07:52;;;;;;;0.40;0.30;;;;;;;8.82;100.00;94624.81;5093082;28;20428;-49
2022/04/11 01:10:21;;;;;;;0.30;0.20;;;;;;;8.43;100.00;94600.19;5093150;28;20507;-49
2022/04/11 01:12:50;;;;;;;0.30;0.20;;;;;;;8.38;100.00;94624.00;5092974;28;20493;-49
2022/04/11 01:15:20;;;;;;;0.40;0.30;;;;;;;8.44;100.00;94609.72;5093231;28;20468;-50
2022/04/11 01:17:48;;;;;;;0.97;0.93;;;;;;;8.29;100.00;94631.69;5093436;28;20833;-50
2022/04/11 01:20:17;;;;;;;0.30;0.20;;;;;;;7.83;92.51;94552.97;5093766;28;20477;-50
2022/04/11 01:22:48;;;;;;;0.33;0.23;;;;;;;8.27;93.68;94630.41;5093100;28;20471;-49
2022/04/11 01:25:18;;;;;;;0.40;0.30;;;;;;;8.10;92.90;94633.31;5092627;28;20978;-49
2022/04/11 01:27:46;;;;;;;0.30;0.20;;;;;;;8.45;100.00;94631.63;5093328;28;20783;-50
2022/04/11 01:30:17;;;;;;;0.30;0.20;;;;;;;8.48;87.90;94626.56;5093356;28;20955;-50
2022/04/11 01:32:46;;;;;;;0.30;0.20;;;;;;;8.67;92.88;94634.66;5093609;28;20436;-50
2022/04/11 01:35:22;;;;;;;0.40;0.40;;;;;;;8.71;88.17;94633.84;5093495;28;20460;-49
2022/04/11 01:37:52;;;;;;;0.30;0.20;;;;;;;8.89;90.50;94619.19;5093225;28;20463;-49
2022/04/11 01:40:21;;;;;;;0.37;0.27;;;;;;;8.66;84.13;94628.59;5093509;28;20876;-50
2022/04/11 01:42:49;;;;;;;0.37;0.33;;;;;;;8.76;87.26;94615.31;5092813;28;20493;-50
2022/04/11 01:45:17;;;;;;;0.30;0.20;;;;;;;9.03;85.29;94637.88;5092986;28;20489;-49
2022/04/11 01:47:46;;;;;;;0.97;0.97;;;;;;;8.86;96.11;94641.66;5092941;28;20520;-49
2022/04/11 01:50:15;;;;;;;0.30;0.20;;;;;;;7.82;90.88;94638.44;5093254;28;20443;-50
2022/04/11 01:52:43;;;;;;;0.30;0.20;;;;;;;7.56;98.42;94656.94;5092905;28;20464;-50
2022/04/11 01:55:13;;;;;;;0.30;0.20;;;;;;;7.72;100.00;94649.00;5092775;28;21021;-49
2022/04/11 01:57:45;;;;;;;0.30;0.20;;;;;;;7.80;100.00;94659.00;5093049;28;20842;-50
2022/04/11 02:00:15;;;;;;;0.40;0.30;;;;;;;7.95;100.00;94643.13;5092579;28;20483;-49
2022/04/11 02:02:43;;;;;;;0.30;0.30;;;;;;;8.27;100.00;94654.91;5093160;28;20421;-49
2022/04/11 02:05:12;;;;;;;0.30;0.20;;;;;;;8.49;98.09;94662.50;5092932;28;20937;-49
2022/04/11 02:07:40;;;;;;;0.50;0.40;;;;;;;8.66;95.72;94662.94;5092639;28;20478;-49
2022/04/11 02:10:09;;;;;;;0.40;0.30;;;;;;;8.45;92.62;94664.09;5092588;28;20500;-49
2022/04/11 02:12:39;;;;;;;0.30;0.20;;;;;;;8.53;91.53;94674.09;5092569;28;20467;-49
2022/04/11 02:15:09;;;;;;;0.30;0.20;;;;;;;8.27;89.52;94672.63;5092433;28;20432;-49
2022/04/11 02:17:38;;;;;;;0.30;0.20;;;;;;;8.13;90.80;94677.66;5092496;28;20482;-50
2022/04/11 02:20:08;;;;;;;0.40;0.30;;;;;;;8.04;96.95;94676.63;5092414;28;20949;-50
2022/04/11 02:22:50;;;;;;;0.60;0.40;;;;;;;7.99;100.00;94683.78;5092379;28;20433;-50
2022/04/11 02:25:19;;;;;;;0.40;0.30;;;;;;;7.57;99.74;94695.44;5092425;28;20452;-48
2022/04/11 02:27:49;;;;;;;0.40;0.30;;;;;;;7.38;100.00;94694.41;5092461;28;20489;-48
2022/04/11 02:30:21;;;;;;;0.30;0.20;;;;;;;7.41;98.81;94688.59;5092247;28;20515;-48
2022/04/11 02:32:50;;;;;;;0.60;0.60;;;;;;;7.68;96.11;94686.47;5091960;28;20425;-49
2022/04/11 02:35:19;;;;;;;0.30;0.20;;;;;;;7.94;92.45;94692.50;5091334;28;20538;-50
2022/04/11 02:37:48;;;;;;;0.30;0.20;;;;;;;8.20;88.69;94674.72;5092399;28;20494;-50
2022/04/11 02:40:17;;;;;;;0.30;0.20;;;;;;;7.79;91.70;94692.53;5092086;28;20900;-50
2022/04/11 02:42:46;;;;;;;2.87;0.30;;;;;;;7.94;88.30;94686.44;5092592;28;20424;-50
2022/04/11 02:45:17;;;;;;;0.40;0.30;;;;;;;7.85;87.36;94598.31;5092067;28;20941;-50
2022/04/11 02:47:46;;;;;;;0.30;0.30;;;;;;;8.57;86.61;94685.69;5091054;28;20432;-50
2022/04/11 02:50:15;;;;;;;0.30;0.20;;;;;;;8.52;79.82;94695.50;5092301;28;20408;-48
2022/04/11 02:52:43;;;;;;;0.30;0.30;;;;;;;8.43;85.43;94684.69;5091848;28;20460;-49
2022/04/11 02:55:11;;;;;;;0.30;0.20;;;;;;;8.52;84.29;94706.06;5091842;28;20519;-49
2022/04/11 02:57:40;;;;;;;0.50;0.30;;;;;;;8.26;84.74;94705.31;5091978;28;20420;-49
2022/04/11 03:00:12;;;;;;;0.30;0.20;;;;;;;8.70;77.10;94700.94;5091867;28;20941;-49
2022/04/11 03:02:42;;;;;;;4.57;0.60;;;;;;;8.55;75.76;94702.88;5091740;28;20433;-49
2022/04/11 03:05:10;;;;;;;0.50;0.50;;;;;;;8.45;81.07;94711.63;5092061;28;20420;-49
2022/04/11 03:07:39;;;;;;;0.30;0.20;;;;;;;8.37;85.49;94698.19;5091664;28;20924;-48
2022/04/11 03:10:09;;;;;;;0.40;0.30;;;;;;;8.46;82.69;94717.69;5091626;28;20886;-49
2022/04/11 03:12:37;;;;;;;0.40;0.40;;;;;;;8.47;81.27;94722.72;5091605;28;20502;-49
2022/04/11 03:15:07;;;;;;;0.40;0.40;;;;;;;8.56;83.07;94736.94;5091696;28;20912;-49
2022/04/11 03:17:36;;;;;;;0.40;0.30;;;;;;;8.41;86.15;94739.63;5091451;28;20461;-49
2022/04/11 03:20:07;;;;;;;0.43;0.43;;;;;;;8.23;87.24;94740.97;5091038;28;20936;-49
2022/04/11 03:22:35;;;;;;;0.40;0.30;;;;;;;8.15;88.89;94743.34;5091540;28;20507;-49
2022/04/11 03:25:04;;;;;;;0.30;0.20;;;;;;;8.44;86.78;94749.66;5091541;28;20421;-49
2022/04/11 03:27:32;;;;;;;0.30;0.30;;;;;;;8.23;84.90;94753.38;5090892;28;20646;-49
2022/04/11 03:30:01;;;;;;;0.40;0.30;;;;;;;8.25;83.82;94749.41;5091697;28;20479;-49
2022/04/11 03:32:29;;;;;;;0.30;0.20;;;;;;;8.52;83.02;94753.59;5091070;28;21153;-52
2022/04/11 03:34:57;;;;;;;0.30;0.20;;;;;;;8.60;80.81;94755.69;5091740;28;20443;-49
2022/04/11 03:37:27;;;;;;;0.30;0.20;;;;;;;8.02;83.20;94762.41;5091249;28;20511;-49
2022/04/11 03:39:56;;;;;;;0.40;0.40;;;;;;;7.96;84.25;94784.56;5091450;28;20542;-49
2022/04/11 03:42:24;;;;;;;0.77;0.77;;;;;;;8.09;85.45;94791.94;5091735;28;20475;-50
2022/04/11 03:44:52;;;;;;;0.30;0.30;;;;;;;7.85;87.81;94798.81;5091199;28;20428;-50
2022/04/11 03:47:21;;;;;;;0.40;0.30;;;;;;;7.28;89.55;94799.03;5091001;28;20443;-50
2022/04/11 03:49:49;;;;;;;0.37;0.30;;;;;;;7.50;88.53;94805.66;5095236;28;20503;-50
2022/04/11 03:52:18;;;;;;;0.30;0.30;;;;;;;7.43;86.64;94760.31;5095103;28;20523;-50
2022/04/11 03:54:47;;;;;;;0.30;0.20;;;;;;;7.44;91.25;94806.69;5094169;28;20478;-50
2022/04/11 03:57:16;;;;;;;0.40;0.30;;;;;;;7.02;95.48;94816.63;5094884;28;20472;-50
2022/04/11 03:59:44;;;;;;;0.30;0.20;;;;;;;6.75;95.32;94813.38;5094733;28;20507;-50
2022/04/11 04:02:13;;;;;;;0.30;0.30;;;;;;;6.58;100.00;94829.34;5092694;28;20412;-50
2022/04/11 04:04:41;;;;;;;0.30;0.30;;;;;;;6.84;100.00;94827.63;5092709;28;20440;-50
2022/04/11 04:07:10;;;;;;;0.30;0.20;;;;;;;7.10;97.05;94821.41;5092946;28;20456;-50
2022/04/11 04:09:38;;;;;;;0.30;0.20;;;;;;;7.30;95.91;94831.19;5092541;28;20565;-50
2022/04/11 04:12:09;;;;;;;0.30;0.20;;;;;;;7.43;95.24;94833.34;5092710;28;20468;-50
2022/04/11 04:14:38;;;;;;;1.47;1.40;;;;;;;6.60;100.00;94844.91;5093363;28;20432;-50
2022/04/11 04:17:06;;;;;;;0.33;0.20;;;;;;;6.55;100.00;94853.56;5094825;28;21078;-50
2022/04/11 04:19:34;;;;;;;0.40;0.30;;;;;;;6.64;100.00;94859.91;5094837;28;20463;-50
2022/04/11 04:22:03;;;;;;;0.50;0.40;;;;;;;6.32;100.00;94857.34;5094745;28;20464;-50
2022/04/11 04:24:34;;;;;;;0.30;0.20;;;;;;;6.40;100.00;94869.25;5094865;28;20420;-49
2022/04/11 04:27:02;;;;;;;0.30;0.30;;;;;;;6.05;100.00;94875.06;5094474;28;20917;-50
2022/04/11 04:29:32;;;;;;;0.63;0.63;;;;;;;6.60;100.00;94871.22;5094435;28;20421;-50
2022/04/11 04:32:01;;;;;;;1.83;1.73;;;;;;;6.31;100.00;94887.38;5094230;28;20524;-49
2022/04/11 04:34:30;;;;;;;0.40;0.40;;;;;;;6.15;100.00;94888.28;5094381;28;20436;-50
2022/04/11 04:36:59;;;;;;;0.40;0.40;;;;;;;6.36;100.00;94894.50;5094241;28;21059;-50
2022/04/11 04:39:27;;;;;;;0.30;0.20;;;;;;;6.68;99.16;94895.22;5094494;28;20425;-50
2022/04/11 04:41:56;;;;;;;1.90;0.73;;;;;;;6.89;91.86;94911.94;5094159;28;20486;-50
2022/04/11 04:44:24;;;;;;;0.40;0.30;;;;;;;7.25;88.96;94920.78;5094045;28;20432;-50
2022/04/11 04:46:54;;;;;;;0.30;0.20;;;;;;;7.63;83.20;94923.03;5094559;28;20476;-50
2022/04/11 04:49:23;;;;;;;1.47;1.47;;;;;;;7.62;85.62;94938.06;5094418;28;20428;-50
2022/04/11 04:51:53;;;;;;;0.30;0.30;;;;;;;7.44;87.00;94941.16;5094476;28;20425;-50
2022/04/11 04:54:21;;;;;;;0.30;0.30;;;;;;;6.88;89.90;94947.25;5093712;28;20460;-50
2022/04/11 04:56:50;;;;;;;0.90;0.90;;;;;;;6.89;85.50;94944.34;5093626;28;20554;-50
2022/04/11 04:59:18;;;;;;;0.70;0.70;;;;;;;7.35;82.01;94947.19;5092947;28;20493;-50
2022/04/11 05:01:46;;;;;;;0.30;0.27;;;;;;;7.35;81.58;94963.00;5093772;28;20464;-50
2022/04/11 05:04:19;;;;;;;0.63;0.63;;;;;;;7.43;78.87;94967.78;5093047;28;20454;-50
2022/04/11 05:06:48;;;;;;;0.30;0.20;;;;;;;7.84;79.10;94971.38;5093859;28;20917;-50
2022/04/11 05:09:17;;;;;;;1.17;0.30;;;;;;;8.01;74.27;94966.66;5093305;28;20475;-50
2022/04/11 05:11:46;;;;;;;0.30;0.30;;;;;;;8.48;73.37;94977.00;5093505;28;20479;-50
2022/04/11 05:14:21;;;;;;;0.30;0.20;;;;;;;8.23;69.00;94961.91;5093658;28;20515;-50
2022/04/11 05:16:49;;;;;;;0.30;0.20;;;;;;;7.85;67.18;94878.75;5093907;28;20518;-50
2022/04/11 05:19:19;;;;;;;0.30;0.20;;;;;;;8.48;68.00;94969.09;5093583;28;20421;-50
2022/04/11 05:21:48;;;;;;;0.40;0.30;;;;;;;8.59;67.86;94981.25;5093850;28;20503;-50
2022/04/11 05:24:16;;;;;;;0.30;0.20;;;;;;;9.48;88.32;94986.66;5093530;28;20523;-50
2022/04/11 05:26:44;;;;;;;0.47;0.47;;;;;;;9.14;66.12;94980.38;5093530;28;20856;-50
2022/04/11 05:29:13;;;;;;;0.30;0.20;;;;;;;9.40;79.54;94990.66;5093380;28;20420;-50
2022/04/11 05:31:41;;;;;;;0.50;0.40;;;;;;;9.53;62.29;94991.94;5092927;28;20481;-50
2022/04/11 05:34:10;;;;;;;0.30;0.20;;;;;;;9.38;62.79;94984.84;5092389;28;20924;-50
2022/04/11 05:36:40;;;;;;;0.30;0.20;;;;;;;10.22;63.70;94988.44;5093096;28;20429;-49
2022/04/11 05:39:08;;;;;;;2.10;0.40;;;;;;;9.26;58.94;94972.97;5093165;28;20834;-48
2022/04/11 05:41:36;;;;;;;0.30;0.20;;;;;;;8.98;61.19;94998.13;5092662;28;20471;-49
2022/04/11 05:44:05;;;;;;;0.97;0.37;;;;;;;9.29;57.87;95001.50;5093051;28;20456;-50
2022/04/11 05:46:34;;;;;;;0.50;0.37;;;;;;;8.65;58.34;94945.88;5092838;28;20456;-49
2022/04/11 05:49:05;;;;;;;0.30;0.20;;;;;;;8.70;58.51;94949.25;5092870;28;20429;-49
2022/04/11 05:51:34;;;;;;;0.40;0.40;;;;;;;9.75;58.51;95025.97;5093230;28;20531;-50
2022/04/11 05:54:04;;;;;;;0.77;0.67;;;;;;;9.85;57.36;95029.38;5093025;28;20511;-50
2022/04/11 05:56:33;;;;;;;0.40;0.30;;;;;;;10.77;54.71;95020.66;5093281;28;20863;-50
2022/04/11 05:59:03;;;;;;;0.40;0.30;;;;;;;11.05;56.23;94997.88;5093057;28;20498;-50
2022/04/11 06:01:32;;;;;;;0.30;0.20;;;;;;;10.95;54.68;95008.56;5092539;28;20952;-50
2022/04/11 06:04:00;;;;;;;0.50;0.40;;;;;;;10.85;51.37;94963.59;5092068;28;20938;-50
2022/04/11 06:06:29;;;;;;;0.33;0.27;;;;;;;11.55;48.17;95025.75;5092354;28;20475;-49
2022/04/11 06:08:57;;;;;;;0.33;0.23;;;;;;;9.91;55.12;94828.97;5092638;28;20432;-49
2022/04/11 06:11:28;;;;;;;0.30;0.20;;;;;;;11.44;47.58;95029.56;5092307;28;20819;-50
2022/04/11 06:13:57;;;;;;;0.30;0.20;;;;;;;12.44;47.02;95026.81;5092477;28;20420;-49
2022/04/11 06:16:25;;;;;;;0.30;0.20;;;;;;;11.94;47.79;94997.16;5092570;28;20824;-49
2022/04/11 06:18:54;;;;;;;0.30;0.20;;;;;;;11.78;48.31;95001.09;5092253;28;20495;-49
2022/04/11 06:21:22;;;;;;;0.40;0.30;;;;;;;11.83;48.15;95035.56;5092379;28;20424;-49
2022/04/11 06:23:51;;;;;;;0.30;0.20;;;;;;;12.04;49.63;95023.59;5092228;28;20544;-49
2022/04/11 06:26:19;;;;;;;0.40;0.30;;;;;;;12.70;45.12;95039.44;5092065;28;20460;-49
2022/04/11 06:28:49;;;;;;;0.50;0.30;;;;;;;11.88;44.93;95035.50;5091264;28;20431;-49
2022/04/11 06:31:17;;;;;;;0.50;0.33;;;;;;;11.99;47.76;95046.81;5091424;28;20456;-49
2022/04/11 06:33:46;;;;;;;0.50;0.50;;;;;;;11.99;46.86;95049.47;5091828;28;20523;-50
2022/04/11 06:36:19;;;;;;;0.30;0.20;;;;;;;12.63;44.89;95039.00;5091741;28;20998;-50
2022/04/11 06:38:47;;;;;;;0.30;0.20;;;;;;;13.41;43.46;95051.63;5091637;28;20463;-50
2022/04/11 06:41:16;;;;;;;0.40;0.30;;;;;;;13.00;43.10;95048.03;5091640;28;20448;-50
2022/04/11 06:43:44;;;;;;;0.30;0.20;;;;;;;11.91;45.23;95055.41;5092213;28;20532;-50
2022/04/11 06:46:14;;;;;;;0.30;0.20;;;;;;;12.32;45.66;95055.69;5090991;28;20450;-50
2022/04/11 06:48:42;;;;;;;0.30;0.20;;;;;;;12.59;50.00;95072.59;5091885;28;20516;-50
2022/04/11 06:51:11;;;;;;;0.30;0.20;;;;;;;13.65;49.70;95070.13;5092589;28;20456;-50
2022/04/11 06:53:39;;;;;;;0.30;0.20;;;;;;;11.79;43.98;94895.69;5091012;28;20471;-50
2022/04/11 06:56:07;;;;;;;0.40;0.30;;;;;;;12.45;43.19;95077.00;5091976;28;20508;-50
2022/04/11 06:58:36;;;;;;;0.30;0.20;;;;;;;12.13;44.53;95086.72;5091798;28;20479;-50
2022/04/11 07:01:05;;;;;;;0.30;0.20;;;;;;;12.09;45.87;95081.22;5091273;28;20515;-50
2022/04/11 07:03:35;;;;;;;0.40;0.30;;;;;;;13.01;59.92;95100.16;5091914;28;20474;-50
2022/04/11 07:06:03;;;;;;;0.60;0.47;;;;;;;12.24;42.01;95102.28;5092097;28;20985;-50
2022/04/11 07:08:31;;;;;;;0.30;0.23;;;;;;;12.84;43.24;95098.03;5092060;28;20442;-50
2022/04/11 07:11:00;;;;;;;0.40;0.30;;;;;;;12.87;42.74;95113.41;5091790;28;21031;-50
2022/04/11 07:13:29;;;;;;;0.40;0.30;;;;;;;12.32;44.47;95109.59;5091750;28;20810;-50
2022/04/11 07:15:57;;;;;;;0.40;0.30;;;;;;;11.43;43.52;95124.31;5092081;28;20455;-50
2022/04/11 07:18:27;;;;;;;0.30;0.20;;;;;;;11.05;43.58;95117.22;5091608;28;20480;-50
2022/04/11 07:20:57;;;;;;;0.30;0.20;;;;;;;11.86;41.99;95119.19;5090996;28;21017;-50
2022/04/11 07:23:26;;;;;;;0.40;0.30;;;;;;;12.84;48.53;95126.47;5093274;28;20777;-49
2022/04/11 07:25:54;;;;;;;0.30;0.20;;;;;;;11.90;42.11;94966.16;5095484;28;20507;-49
2022/04/11 07:28:23;;;;;;;0.30;0.20;;;;;;;13.93;39.54;95125.00;5095606;28;20849;-49
2022/04/11 07:30:52;;;;;;;0.30;0.20;;;;;;;14.23;39.44;95136.97;5095769;28;20873;-49
2022/04/11 07:33:20;;;;;;;0.40;0.40;;;;;;;13.73;42.43;95106.72;5095635;28;20444;-50
2022/04/11 07:35:49;;;;;;;0.30;0.30;;;;;;;14.41;38.71;95144.13;5095348;28;20944;-50
2022/04/11 07:38:19;;;;;;;0.30;0.20;;;;;;;14.54;37.78;95136.13;5095731;28;20471;-51
2022/04/11 07:40:49;;;;;;;0.30;0.20;;;;;;;15.31;36.46;95152.03;5095666;28;20503;-52
2022/04/11 07:43:18;;;;;;;0.40;0.20;;;;;;;14.44;36.85;95138.19;5095059;28;20432;-53
2022/04/11 07:45:46;;;;;;;0.40;0.30;;;;;;;15.62;43.39;95165.50;5095344;28;20424;-54
2022/04/11 07:48:15;;;;;;;0.40;0.30;;;;;;;15.84;36.25;95146.75;5095365;28;20977;-53
2022/04/11 07:50:43;;;;;;;0.60;0.30;;;;;;;15.71;42.39;95156.44;5095256;28;20456;-54
2022/04/11 07:53:11;;;;;;;0.30;0.20;;;;;;;16.67;36.36;95150.47;5095138;28;20514;-53
2022/04/11 07:55:44;;;;;;;0.40;0.20;;;;;;;16.63;38.79;95155.63;5095659;28;20862;-52
2022/04/11 07:58:15;;;;;;;0.50;0.50;;;;;;;15.17;35.88;95160.09;5094722;28;20432;-53
2022/04/11 08:00:43;;;;;;;0.40;0.30;;;;;;;16.78;34.93;95159.75;5095027;28;20519;-52
2022/04/11 08:03:12;;;;;;;0.40;0.30;;;;;;;16.29;35.25;95169.63;5095231;28;20485;-52
2022/04/11 08:05:40;;;;;;;0.60;0.60;;;;;;;15.36;34.16;95169.81;5095044;28;20486;-52
2022/04/11 08:08:09;;;;;;;0.40;0.30;;;;;;;15.35;33.92;95187.75;5095002;28;20456;-53
2022/04/11 08:10:37;;;;;;;0.40;0.30;;;;;;;16.36;34.35;95185.25;5094851;28;20491;-53
2022/04/11 08:13:07;;;;;;;0.40;0.20;;;;;;;16.20;33.93;95168.81;5094814;28;20436;-53
2022/04/11 08:15:36;;;;;;;0.40;0.40;;;;;;;16.21;31.45;95172.28;5094969;28;20881;-55
2022/04/11 08:18:04;;;;;;;0.40;0.30;;;;;;;16.33;34.34;95184.00;5094773;28;20968;-57
2022/04/11 08:20:33;;;;;;;0.40;0.20;;;;;;;16.20;34.83;95181.41;5094723;28;20424;-56
2022/04/11 08:23:01;;;;;;;0.40;0.30;;;;;;;16.36;33.65;95182.59;5095092;28;20503;-56
2022/04/11 08:25:29;;;;;;;0.40;0.20;;;;;;;17.00;34.48;95184.53;5094781;28;20855;-56
2022/04/11 08:27:58;;;;;;;0.30;0.20;;;;;;;18.22;34.55;95189.56;5094644;28;20413;-55
2022/04/11 08:30:28;;;;;;;0.30;0.20;;;;;;;16.94;34.87;95187.69;5094751;28;20520;-54
2022/04/11 08:32:57;;;;;;;0.40;0.20;;;;;;;16.88;35.01;95181.69;5094826;28;20793;-57
2022/04/11 08:35:25;;;;;;;0.60;0.30;;;;;;;16.71;31.28;95194.22;5093720;28;20515;-55
2022/04/11 08:37:53;;;;;;;0.60;0.30;;;;;;;16.71;31.37;95188.88;5094421;28;20475;-55
2022/04/11 08:40:22;;;;;;;0.93;0.93;;;;;;;17.98;32.58;95189.31;5094572;28;20476;-50
2022/04/11 08:42:51;;;;;;;0.50;0.33;;;;;;;17.37;31.44;95195.78;5094287;28;20435;-51
2022/04/11 08:45:20;;;;;;;0.40;0.20;;;;;;;16.92;33.47;95196.03;5094066;28;20440;-53
2022/04/11 08:47:53;;;;;;;0.40;0.30;;;;;;;17.19;32.57;95186.94;5094245;28;20968;-52
2022/04/11 08:50:22;;;;;;;0.40;0.30;;;;;;;17.08;31.80;95202.50;5093779;28;20456;-51
2022/04/11 08:52:51;;;;;;;0.40;0.20;;;;;;;16.48;33.20;95202.31;5093549;28;20520;-52
2022/04/11 08:55:21;;;;;;;0.50;0.50;;;;;;;16.08;31.79;95208.72;5093909;28;20456;-51
2022/04/11 08:57:49;;;;;;;0.40;0.30;;;;;;;16.43;32.81;95198.97;5093020;28;20481;-52
2022/04/11 09:00:20;;;;;;;0.40;0.30;;;;;;;18.09;30.76;95153.00;5093627;28;20558;-51
2022/04/11 09:02:50;;;;;;;0.30;0.20;;;;;;;17.53;29.50;95207.66;5093324;28;20436;-52
2022/04/11 09:05:24;;;;;;;0.40;0.30;;;;;;;18.03;30.43;95186.47;5093824;28;20981;-51
2022/04/11 09:07:54;;;;;;;1.20;0.50;;;;;;;18.35;29.95;95202.00;5093892;28;20860;-52
2022/04/11 09:10:25;;;;;;;0.40;0.40;;;;;;;18.67;28.75;95190.69;5092733;28;20463;-51
2022/04/11 09:12:55;;;;;;;0.40;0.20;;;;;;;19.34;28.87;95211.34;5093437;28;20444;-51
2022/04/11 09:15:24;;;;;;;0.50;0.30;;;;;;;19.30;29.09;95207.75;5093554;28;20471;-53
2022/04/11 09:17:56;;;;;;;0.40;0.20;;;;;;;19.25;29.45;95221.38;5093370;28;20461;-52
2022/04/11 09:20:27;;;;;;;0.77;0.77;;;;;;;17.29;29.73;95215.31;5093158;28;20480;-52
2022/04/11 09:22:56;;;;;;;0.30;0.20;;;;;;;17.63;30.51;95220.72;5093269;28;20436;-53
2022/04/11 09:25:30;;;;;;;0.40;0.30;;;;;;;17.35;30.77;95225.56;5093644;28;20432;-51
2022/04/11 09:28:07;;;;;;;0.40;0.40;;;;;;;17.13;31.23;95231.81;5093245;28;20432;-51
2022/04/11 09:30:36;;;;;;;0.40;0.37;;;;;;;17.09;29.88;95201.41;5093241;28;20841;-51
2022/04/11 09:33:08;;;;;;;0.43;0.37;;;;;;;17.08;29.49;95244.56;5093082;28;20460;-51
2022/04/11 09:35:39;;;;;;;0.40;0.40;;;;;;;17.30;31.22;95255.19;5093321;28;20424;-50
2022/04/11 09:38:12;;;;;;;0.40;0.30;;;;;;;16.37;31.19;95254.50;5092939;28;20432;-50
2022/04/11 09:40:44;;;;;;;0.40;0.30;;;;;;;16.20;31.97;95251.72;5093050;28;20514;-52
2022/04/11 09:43:14;;;;;;;0.40;0.20;;;;;;;16.21;31.29;95260.53;5093166;28;20432;-53
2022/04/11 09:45:44;;;;;;;0.40;0.30;;;;;;;15.18;31.57;95265.00;5092087;28;20436;-55
2022/04/11 09:48:19;;;;;;;0.40;0.27;;;;;;;14.76;33.24;95263.44;5093174;28;20428;-54
2022/04/11 09:50:48;;;;;;;0.40;0.30;;;;;;;14.93;36.83;95257.50;5093211;28;20464;-55
2022/04/11 09:53:18;;;;;;;0.40;0.20;;;;;;;15.07;33.26;95263.63;5092979;28;20941;-55
2022/04/11 09:55:50;;;;;;;0.40;0.20;;;;;;;15.49;34.00;95246.47;5092932;28;20428;-55
2022/04/11 09:58:21;;;;;;;0.40;0.30;;;;;;;15.35;34.41;95270.53;5092921;28;20455;-55
2022/04/11 10:00:51;;;;;;;0.30;0.20;;;;;;;14.55;34.95;95284.38;5092934;28;20475;-55
2022/04/11 10:03:23;;;;;;;0.70;0.30;;;;;;;14.11;35.17;95280.59;5092525;28;20424;-56
2022/04/11 10:05:53;;;;;;;3.63;2.10;;;;;;;14.53;35.31;95280.41;5092864;28;20508;-55
2022/04/11 10:08:26;;;;;;;0.50;0.30;;;;;;;14.51;34.67;95269.25;5092671;28;20555;-55
2022/04/11 10:10:56;;;;;;;0.40;0.20;;;;;;;16.24;33.72;95270.63;5092088;28;20576;-56
2022/04/11 10:13:25;;;;;;;0.30;0.20;;;;;;;16.87;31.78;95254.28;5091801;28;20496;-54
2022/04/11 10:15:54;;;;;;;0.50;0.47;;;;;;;17.37;33.06;95263.56;5091799;28;20478;-52
2022/04/11 10:18:28;;;;;;;0.40;0.30;;;;;;;18.42;31.64;95264.78;5091636;28;20460;-52
2022/04/11 10:21:00;;;;;;;0.80;0.43;;;;;;;19.48;30.07;95254.94;5091691;28;20460;-53
2022/04/11 10:23:56;;;;;;;0.40;0.20;;;;;;;20.53;27.44;95204.13;5091295;28;20885;-53
2022/04/11 10:26:27;;;;;;;0.60;0.60;;;;;;;18.63;29.03;95262.25;5091581;28;20483;-54
2022/04/11 10:28:56;;;;;;;0.37;0.27;;;;;;;18.40;29.95;95256.28;5091843;28;20550;-53
2022/04/11 10:31:36;;;;;;;0.50;0.50;;;;;;;20.29;33.98;95251.75;5091749;28;20509;-53
2022/04/11 10:34:06;;;;;;;0.73;0.57;;;;;;;20.57;27.01;95244.63;5091294;28;20894;-53
2022/04/11 10:36:57;;;;;;;0.40;0.30;;;;;;;20.36;26.20;95196.25;5091237;28;20540;-53
2022/04/11 10:39:26;;;;;;;0.40;0.30;;;;;;;21.41;27.10;95243.91;5091318;28;20421;-53
2022/04/11 10:42:11;;;;;;;0.40;0.30;;;;;;;21.24;25.07;95249.56;5091480;28;20440;-53
2022/04/11 10:44:41;;;;;;;1.80;1.70;;;;;;;20.94;26.38;95248.97;5091178;28;20472;-53
2022/04/11 10:47:33;;;;;;;0.40;0.37;;;;;;;19.52;27.21;95204.75;5091203;28;20997;-54
2022/04/11 10:50:34;;;;;;;0.40;0.30;;;;;;;19.03;27.03;95258.13;5091522;28;20440;-53
2022/04/11 10:53:10;;;;;;;0.40;0.30;;;;;;;18.44;28.80;95255.66;5091126;28;20482;-53
2022/04/11 10:55:55;;;;;;;0.43;0.40;;;;;;;17.44;28.34;95261.19;5091256;28;20450;-53
2022/04/11 10:58:25;;;;;;;0.40;0.30;;;;;;;16.75;29.39;95254.84;5088624;28;20462;-53
2022/04/11 11:00:53;;;;;;;0.80;0.40;;;;;;;17.15;33.66;95234.22;5090818;28;20472;-52
2022/04/11 11:03:22;;;;;;;0.40;0.30;;;;;;;16.90;28.97;95259.78;5090944;28;20442;-52
2022/04/11 11:06:23;;;;;;;0.40;0.30;;;;;;;15.74;29.90;95268.06;5090822;28;20448;-51
2022/04/11 11:08:52;;;;;;;0.53;0.40;;;;;;;16.51;30.32;95267.78;5090764;28;20481;-53
2022/04/11 11:11:26;;;;;;;0.40;0.20;;;;;;;16.36;30.89;95266.31;5048333;28;1220557;-53
2022/04/11 11:13:56;;;;;;;0.40;0.30;;;;;;;16.87;36.53;95265.00;5091778;28;20276;-53
2022/04/11 11:16:37;;;;;;;0.40;0.30;;;;;;;17.08;30.41;95265.97;5091978;28;20846;-54
2022/04/11 11:19:20;;;;;;;0.40;0.20;;;;;;;16.64;30.11;95269.63;5091520;28;20863;-54
2022/04/11 11:22:01;;;;;;;0.60;0.40;;;;;;;16.92;31.50;95267.53;5091710;28;20463;-53
2022/04/11 11:24:30;;;;;;;0.40;0.30;;;;;;;17.75;28.43;95261.88;5091663;28;20460;-53
2022/04/11 11:27:03;;;;;;;0.40;0.30;;;;;;;17.04;27.27;95198.91;5091549;28;20444;-53
2022/04/11 11:29:41;;;;;;;0.40;0.30;;;;;;;16.45;31.10;95267.13;5091216;28;20437;-54
2022/04/11 11:32:12;;;;;;;0.60;0.30;;;;;;;15.87;31.37;95264.56;5090368;28;20420;-54
2022/04/11 11:34:42;;;;;;;0.60;0.60;;;;;;;17.28;30.35;95252.00;5090640;28;20436;-53
2022/04/11 11:37:13;;;;;;;0.40;0.30;;;;;;;16.79;30.58;95255.81;5090948;28;20428;-53
2022/04/11 11:39:45;;;;;;;0.40;0.30;;;;;;;17.62;29.94;95245.94;5091128;28;20916;-54
2022/04/11 11:42:15;;;;;;;0.40;0.23;;;;;;;18.00;28.96;95246.88;5090818;28;20917;-54
2022/04/11 11:44:47;;;;;;;0.60;0.50;;;;;;;17.17;28.29;95245.38;5091208;28;20432;-53
2022/04/11 11:47:16;;;;;;;0.50;0.50;;;;;;;18.32;27.77;95237.50;5091210;28;20477;-52
2022/04/11 11:49:47;;;;;;;0.40;0.40;;;;;;;18.07;29.50;95233.78;5091361;28;20947;-53